createdAt,value
2018-05-12T00:00:51.914Z,90.54
2018-05-12T00:01:51.849Z,91.30
2018-05-12T00:02:51.788Z,91.40
2018-05-12T00:03:51.725Z,91.36
2018-05-12T00:04:51.662Z,91.55
2018-05-12T00:05:51.685Z,91.26
2018-05-12T00:06:51.538Z,90.69
2018-05-12T00:07:51.473Z,91.78
2018-05-12T00:08:51.410Z,90.50
2018-05-12T00:09:51.350Z,90.73
2018-05-12T00:10:51.286Z,90.64
2018-05-12T00:11:51.359Z,90.16
2018-05-12T00:12:51.165Z,90.64
2018-05-12T00:13:51.098Z,90.69
2018-05-12T00:14:51.039Z,91.45
2018-05-12T00:15:50.970Z,91.36
2018-05-12T00:16:50.911Z,91.45
2018-05-12T00:17:50.846Z,91.64
2018-05-12T00:18:50.782Z,91.55
2018-05-12T00:19:50.725Z,91.36
2018-05-12T00:20:50.660Z,91.45
2018-05-12T00:21:50.595Z,90.97
2018-05-12T00:22:50.532Z,91.74
2018-05-12T00:23:50.469Z,91.36
2018-05-12T00:24:50.408Z,91.83
2018-05-12T00:25:50.344Z,91.07
2018-05-12T00:26:50.284Z,91.26
2018-05-12T00:27:50.223Z,90.69
2018-05-12T00:28:50.155Z,91.64
2018-05-12T00:29:50.095Z,90.97
2018-05-12T00:30:50.032Z,91.45
2018-05-12T00:31:49.968Z,91.26
2018-05-12T00:32:49.905Z,92.02
2018-05-12T00:33:49.847Z,92.02
2018-05-12T00:34:49.778Z,91.64
2018-05-12T00:35:49.713Z,92.69
2018-05-12T00:36:49.652Z,92.69
2018-05-12T00:37:49.591Z,92.50
2018-05-12T00:38:49.543Z,91.64
2018-05-12T00:39:49.463Z,92.02
2018-05-12T00:40:49.401Z,91.93
2018-05-12T00:41:49.337Z,91.45
2018-05-12T00:42:49.349Z,91.55
2018-05-12T00:43:49.306Z,91.36
2018-05-12T00:44:49.216Z,91.55
2018-05-12T00:45:49.093Z,91.93
2018-05-12T00:46:49.024Z,91.64
2018-05-12T00:47:48.961Z,91.60
2018-05-12T00:48:48.908Z,92.26
2018-05-12T00:49:48.834Z,92.83
2018-05-12T00:50:48.772Z,92.74
2018-05-12T00:51:48.711Z,93.41
2018-05-12T00:52:48.644Z,93.31
2018-05-12T00:53:48.583Z,92.74
2018-05-12T00:54:48.520Z,92.83
2018-05-12T00:55:48.480Z,92.36
2018-05-12T00:56:48.389Z,92.46
2018-05-12T00:57:48.326Z,92.65
2018-05-12T00:58:48.268Z,92.74
2018-05-12T00:59:48.204Z,92.93
2018-05-12T01:00:48.146Z,92.26
2018-05-12T01:01:48.079Z,92.36
2018-05-12T01:02:48.019Z,92.46
2018-05-12T01:03:47.951Z,92.26
2018-05-12T01:04:47.890Z,92.55
2018-05-12T01:05:47.827Z,92.65
2018-05-12T01:06:47.765Z,92.55
2018-05-12T01:07:47.700Z,92.46
2018-05-12T01:08:47.636Z,92.36
2018-05-12T01:09:47.575Z,92.26
2018-05-12T01:10:47.511Z,92.36
2018-05-12T01:11:47.449Z,92.46
2018-05-12T01:12:47.385Z,92.65
2018-05-12T01:13:47.322Z,92.26
2018-05-12T01:14:47.258Z,92.26
2018-05-12T01:15:47.196Z,92.55
2018-05-12T01:16:47.132Z,92.36
2018-05-12T01:17:47.069Z,91.78
2018-05-12T01:18:47.009Z,91.98
2018-05-12T01:19:46.945Z,92.07
2018-05-12T01:20:46.881Z,92.17
2018-05-12T01:21:46.817Z,92.26
2018-05-12T01:22:46.756Z,92.17
2018-05-12T01:23:46.691Z,92.26
2018-05-12T01:24:46.638Z,92.46
2018-05-12T01:25:46.565Z,92.65
2018-05-12T01:26:46.505Z,92.07
2018-05-12T01:27:46.440Z,92.26
2018-05-12T01:28:46.376Z,92.07
2018-05-12T01:29:46.315Z,92.17
2018-05-12T01:30:46.253Z,92.46
2018-05-12T01:31:46.191Z,92.74
2018-05-12T01:32:46.125Z,93.41
2018-05-12T01:33:46.060Z,93.22
2018-05-12T01:34:46.001Z,93.22
2018-05-12T01:35:45.948Z,93.22
2018-05-12T01:36:45.871Z,93.02
2018-05-12T01:37:45.811Z,93.02
2018-05-12T01:38:45.747Z,93.22
2018-05-12T01:39:45.691Z,93.22
2018-05-12T01:40:45.619Z,92.83
2018-05-12T01:41:45.555Z,93.41
2018-05-12T01:42:45.499Z,93.22
2018-05-12T01:43:45.431Z,92.46
2018-05-12T01:44:45.368Z,92.74
2018-05-12T01:45:45.304Z,93.02
2018-05-12T01:46:45.287Z,92.55
2018-05-12T01:47:45.175Z,92.65
2018-05-12T01:48:45.115Z,93.02
2018-05-12T01:49:45.103Z,92.74
2018-05-12T01:50:44.988Z,92.36
2018-05-12T01:51:44.925Z,92.65
2018-05-12T01:52:44.863Z,93.31
2018-05-12T01:53:44.799Z,92.74
2018-05-12T01:54:44.734Z,93.31
2018-05-12T01:55:44.671Z,93.60
2018-05-12T01:56:44.608Z,93.79
2018-05-12T01:57:44.544Z,93.98
2018-05-12T01:58:44.483Z,93.79
2018-05-12T01:59:44.417Z,93.60
2018-05-12T02:00:44.354Z,93.88
2018-05-12T02:01:44.291Z,93.22
2018-05-12T02:02:44.228Z,93.41
2018-05-12T02:03:44.165Z,93.41
2018-05-12T02:04:44.101Z,93.22
2018-05-12T02:05:44.039Z,93.70
2018-05-12T02:06:43.976Z,93.98
2018-05-12T02:07:43.912Z,93.51
2018-05-12T02:08:43.850Z,93.98
2018-05-12T02:09:43.786Z,94.17
2018-05-12T02:10:43.723Z,94.07
2018-05-12T02:11:43.660Z,94.17
2018-05-12T02:12:43.599Z,93.31
2018-05-12T02:13:43.533Z,93.93
2018-05-12T02:14:43.471Z,93.60
2018-05-12T02:15:43.407Z,93.51
2018-05-12T02:16:43.343Z,94.27
2018-05-12T02:17:43.281Z,93.60
2018-05-12T02:18:43.223Z,93.79
2018-05-12T02:19:43.154Z,93.98
2018-05-12T02:20:43.093Z,93.98
2018-05-12T02:21:43.027Z,93.79
2018-05-12T02:22:42.964Z,94.22
2018-05-12T02:23:42.902Z,94.03
2018-05-12T02:24:42.837Z,93.84
2018-05-12T02:25:42.776Z,94.51
2018-05-12T02:26:42.712Z,93.46
2018-05-12T02:27:42.647Z,93.36
2018-05-12T02:28:42.585Z,93.74
2018-05-12T02:29:42.521Z,93.84
2018-05-12T02:30:42.460Z,94.22
2018-05-12T02:31:42.400Z,94.41
2018-05-12T02:32:42.332Z,94.32
2018-05-12T02:33:42.269Z,94.51
2018-05-12T02:34:42.206Z,94.03
2018-05-12T02:35:42.142Z,94.22
2018-05-12T02:36:42.077Z,94.32
2018-05-12T02:37:42.015Z,94.22
2018-05-12T02:38:41.951Z,94.22
2018-05-12T02:39:41.891Z,94.03
2018-05-12T02:40:41.822Z,94.03
2018-05-12T02:41:41.764Z,93.55
2018-05-12T02:42:41.699Z,93.93
2018-05-12T02:43:41.643Z,93.74
2018-05-12T02:44:41.570Z,93.65
2018-05-12T02:45:41.509Z,93.46
2018-05-12T02:46:41.446Z,93.55
2018-05-12T02:47:41.383Z,93.74
2018-05-12T02:48:41.318Z,94.32
2018-05-12T02:49:41.253Z,94.32
2018-05-12T02:50:41.190Z,94.32
2018-05-12T02:51:41.131Z,94.12
2018-05-12T02:52:41.067Z,94.22
2018-05-12T02:53:41.001Z,94.12
2018-05-12T02:54:40.938Z,94.79
2018-05-12T02:55:40.878Z,94.70
2018-05-12T02:56:40.812Z,94.60
2018-05-12T02:57:40.747Z,94.41
2018-05-12T02:58:40.683Z,94.41
2018-05-12T02:59:40.620Z,94.70
2018-05-12T03:00:40.555Z,94.32
2018-05-12T03:01:40.494Z,94.12
2018-05-12T03:02:40.430Z,94.41
2018-05-12T03:03:40.365Z,94.51
2018-05-12T03:04:40.304Z,94.70
2018-05-12T03:05:40.240Z,94.79
2018-05-12T03:06:40.176Z,94.51
2018-05-12T03:07:40.111Z,94.60
2018-05-12T03:08:40.048Z,94.03
2018-05-12T03:09:39.990Z,94.32
2018-05-12T03:10:39.926Z,94.89
2018-05-12T03:11:39.859Z,94.70
2018-05-12T03:12:39.796Z,94.98
2018-05-12T03:13:39.735Z,94.65
2018-05-12T03:14:39.669Z,94.56
2018-05-12T03:15:39.603Z,94.46
2018-05-12T03:16:39.541Z,94.74
2018-05-12T03:17:39.476Z,94.46
2018-05-12T03:18:39.413Z,94.37
2018-05-12T03:19:39.349Z,95.22
2018-05-12T03:20:39.283Z,95.03
2018-05-12T03:21:39.224Z,95.03
2018-05-12T03:22:39.160Z,94.98
2018-05-12T03:23:39.095Z,95.61
2018-05-12T03:24:39.032Z,95.79
2018-05-12T03:25:38.968Z,95.32
2018-05-12T03:26:38.905Z,94.93
2018-05-12T03:27:38.844Z,94.56
2018-05-12T03:28:38.776Z,94.56
2018-05-12T03:29:38.716Z,94.37
2018-05-12T03:30:38.651Z,94.60
2018-05-12T03:31:38.586Z,94.46
2018-05-12T03:32:38.526Z,94.46
2018-05-12T03:33:38.465Z,94.56
2018-05-12T03:34:38.395Z,94.37
2018-05-12T03:35:38.333Z,94.27
2018-05-12T03:36:38.269Z,94.65
2018-05-12T03:37:38.212Z,95.03
2018-05-12T03:38:38.141Z,94.56
2018-05-12T03:39:38.081Z,94.84
2018-05-12T03:40:38.014Z,94.37
2018-05-12T03:41:37.950Z,93.98
2018-05-12T03:42:37.889Z,94.17
2018-05-12T03:43:37.823Z,94.65
2018-05-12T03:44:37.763Z,94.46
2018-05-12T03:45:37.696Z,94.46
2018-05-12T03:46:37.634Z,94.74
2018-05-12T03:47:37.567Z,94.65
2018-05-12T03:48:37.505Z,94.56
2018-05-12T03:49:37.443Z,95.12
2018-05-12T03:50:37.378Z,95.22
2018-05-12T03:51:37.314Z,95.32
2018-05-12T03:52:37.250Z,95.03
2018-05-12T03:53:37.186Z,95.22
2018-05-12T03:54:37.126Z,94.08
2018-05-12T03:55:37.058Z,94.56
2018-05-12T03:56:36.997Z,94.27
2018-05-12T03:57:36.933Z,94.65
2018-05-12T03:58:36.867Z,94.84
2018-05-12T03:59:36.804Z,94.84
2018-05-12T04:00:36.758Z,94.65
2018-05-12T04:01:36.680Z,95.22
2018-05-12T04:02:36.616Z,95.22
2018-05-12T04:03:36.550Z,94.46
2018-05-12T04:04:36.486Z,94.37
2018-05-12T04:05:36.422Z,94.56
2018-05-12T04:06:36.360Z,94.56
2018-05-12T04:07:36.293Z,94.37
2018-05-12T04:08:36.287Z,94.37
2018-05-12T04:09:36.169Z,94.37
2018-05-12T04:10:36.180Z,94.27
2018-05-12T04:11:36.039Z,94.74
2018-05-12T04:12:35.976Z,94.84
2018-05-12T04:13:35.912Z,94.46
2018-05-12T04:14:35.850Z,94.46
2018-05-12T04:15:35.785Z,94.37
2018-05-12T04:16:35.724Z,94.65
2018-05-12T04:17:35.656Z,94.37
2018-05-12T04:18:35.596Z,94.46
2018-05-12T04:19:35.531Z,94.37
2018-05-12T04:20:35.467Z,94.74
2018-05-12T04:21:35.403Z,94.65
2018-05-12T04:22:35.339Z,94.93
2018-05-12T04:23:35.276Z,94.84
2018-05-12T04:24:35.213Z,95.51
2018-05-12T04:25:35.149Z,95.22
2018-05-12T04:26:35.084Z,94.74
2018-05-12T04:27:35.021Z,95.12
2018-05-12T04:28:34.957Z,94.56
2018-05-12T04:29:34.894Z,94.46
2018-05-12T04:30:34.832Z,95.22
2018-05-12T04:31:34.766Z,94.74
2018-05-12T04:32:34.701Z,95.32
2018-05-12T04:33:34.642Z,95.61
2018-05-12T04:34:34.576Z,95.22
2018-05-12T04:35:34.511Z,94.84
2018-05-12T04:36:34.445Z,95.03
2018-05-12T04:37:34.383Z,94.93
2018-05-12T04:38:34.320Z,95.32
2018-05-12T04:39:34.256Z,94.65
2018-05-12T04:40:34.191Z,94.84
2018-05-12T04:41:34.130Z,95.22
2018-05-12T04:42:34.065Z,94.93
2018-05-12T04:43:34.000Z,94.84
2018-05-12T04:44:33.936Z,94.84
2018-05-12T04:45:33.873Z,95.03
2018-05-12T04:46:33.812Z,94.84
2018-05-12T04:47:33.749Z,95.03
2018-05-12T04:48:33.682Z,95.03
2018-05-12T04:49:33.629Z,94.74
2018-05-12T04:50:33.556Z,95.51
2018-05-12T04:51:33.491Z,95.32
2018-05-12T04:52:33.428Z,95.32
2018-05-12T04:53:33.365Z,95.22
2018-05-12T04:54:33.300Z,94.98
2018-05-12T04:55:33.237Z,95.61
2018-05-12T04:56:33.171Z,95.17
2018-05-12T04:57:33.110Z,95.56
2018-05-12T04:58:33.049Z,95.56
2018-05-12T04:59:32.980Z,95.46
2018-05-12T05:00:32.920Z,95.17
2018-05-12T05:01:32.856Z,94.89
2018-05-12T05:02:32.791Z,94.41
2018-05-12T05:03:32.728Z,94.32
2018-05-12T05:04:32.664Z,94.60
2018-05-12T05:05:32.607Z,94.89
2018-05-12T05:06:32.538Z,94.89
2018-05-12T05:07:32.475Z,94.51
2018-05-12T05:08:32.410Z,94.79
2018-05-12T05:09:32.346Z,94.41
2018-05-12T05:10:32.283Z,95.17
2018-05-12T05:11:32.220Z,94.89
2018-05-12T05:12:32.155Z,95.27
2018-05-12T05:13:32.092Z,95.27
2018-05-12T05:14:32.028Z,95.17
2018-05-12T05:15:31.974Z,94.98
2018-05-12T05:16:31.905Z,95.37
2018-05-12T05:17:31.839Z,95.37
2018-05-12T05:18:31.776Z,95.08
2018-05-12T05:19:31.712Z,94.89
2018-05-12T05:20:31.647Z,95.46
2018-05-12T05:21:31.583Z,94.89
2018-05-12T05:22:31.522Z,94.41
2018-05-12T05:23:31.457Z,94.22
2018-05-12T05:24:31.394Z,94.32
2018-05-12T05:25:31.332Z,94.41
2018-05-12T05:26:31.270Z,94.32
2018-05-12T05:27:31.201Z,94.79
2018-05-12T05:28:31.138Z,94.74
2018-05-12T05:29:31.075Z,94.74
2018-05-12T05:30:31.016Z,94.93
2018-05-12T05:31:30.952Z,94.84
2018-05-12T05:32:30.885Z,94.46
2018-05-12T05:33:30.822Z,93.88
2018-05-12T05:34:30.759Z,93.31
2018-05-12T05:35:30.695Z,92.55
2018-05-12T05:36:30.634Z,92.65
2018-05-12T05:37:30.570Z,92.46
2018-05-12T05:38:30.505Z,92.12
2018-05-12T05:39:30.441Z,91.83
2018-05-12T05:40:30.377Z,91.74
2018-05-12T05:41:30.320Z,92.21
2018-05-12T05:42:30.252Z,91.64
2018-05-12T05:43:30.190Z,91.45
2018-05-12T05:44:30.132Z,90.21
2018-05-12T05:45:30.062Z,90.59
2018-05-12T05:46:30.001Z,90.50
2018-05-12T05:47:29.947Z,90.40
2018-05-12T05:48:29.873Z,90.21
2018-05-12T05:49:29.811Z,90.50
2018-05-12T05:50:29.747Z,90.50
2018-05-12T05:51:29.682Z,90.69
2018-05-12T05:52:29.620Z,90.97
2018-05-12T05:53:29.557Z,91.74
2018-05-12T05:54:29.495Z,90.73
2018-05-12T05:55:29.431Z,90.40
2018-05-12T05:56:29.370Z,90.97
2018-05-12T05:57:29.306Z,91.21
2018-05-12T05:58:29.245Z,91.50
2018-05-12T05:59:29.179Z,90.64
2018-05-12T06:00:29.117Z,90.35
2018-05-12T06:01:29.054Z,91.40
2018-05-12T06:02:28.990Z,90.35
2018-05-12T06:03:28.928Z,90.45
2018-05-12T06:04:28.863Z,90.45
2018-05-12T06:05:28.802Z,89.78
2018-05-12T06:06:28.741Z,90.73
2018-05-12T06:07:28.683Z,90.64
2018-05-12T06:08:28.614Z,90.54
2018-05-12T06:09:28.552Z,90.54
2018-05-12T06:10:28.490Z,90.64
2018-05-12T06:11:28.428Z,90.35
2018-05-12T06:12:28.366Z,90.35
2018-05-12T06:13:28.301Z,90.54
2018-05-12T06:14:28.239Z,90.64
2018-05-12T06:15:28.175Z,90.68
2018-05-12T06:16:28.113Z,90.11
2018-05-12T06:17:28.051Z,90.59
2018-05-12T06:18:27.989Z,89.92
2018-05-12T06:19:27.924Z,89.73
2018-05-12T06:20:27.863Z,90.30
2018-05-12T06:21:27.800Z,90.30
2018-05-12T06:22:27.737Z,89.53
2018-05-12T06:23:27.675Z,89.44
2018-05-12T06:24:27.612Z,89.06
2018-05-12T06:25:27.551Z,89.15
2018-05-12T06:26:27.489Z,88.87
2018-05-12T06:27:27.425Z,88.48
2018-05-12T06:28:27.363Z,89.20
2018-05-12T06:29:27.306Z,88.77
2018-05-12T06:30:27.237Z,88.15
2018-05-12T06:31:27.176Z,87.95
2018-05-12T06:32:27.113Z,88.34
2018-05-12T06:33:27.053Z,89.01
2018-05-12T06:34:26.991Z,88.43
2018-05-12T06:35:26.929Z,88.24
2018-05-12T06:36:26.867Z,87.95
2018-05-12T06:37:26.803Z,87.09
2018-05-12T06:38:26.742Z,87.38
2018-05-12T06:39:26.683Z,87.38
2018-05-12T06:40:26.621Z,87.95
2018-05-12T06:41:26.555Z,87.48
2018-05-12T06:42:26.492Z,87.19
2018-05-12T06:43:26.432Z,87.66
2018-05-12T06:44:26.370Z,87.95
2018-05-12T06:45:26.308Z,87.86
2018-05-12T06:46:26.246Z,87.43
2018-05-12T06:47:26.184Z,86.76
2018-05-12T06:48:26.123Z,86.76
2018-05-12T06:49:26.058Z,86.47
2018-05-12T06:50:25.997Z,86.94
2018-05-12T06:51:25.939Z,85.71
2018-05-12T06:52:25.874Z,85.61
2018-05-12T06:53:25.813Z,84.94
2018-05-12T06:54:25.750Z,85.36
2018-05-12T06:55:25.689Z,85.17
2018-05-12T06:56:25.627Z,85.36
2018-05-12T06:57:25.565Z,85.36
2018-05-12T06:58:25.504Z,85.55
2018-05-12T06:59:25.443Z,85.27
2018-05-12T07:00:25.381Z,85.17
2018-05-12T07:01:25.357Z,85.46
2018-05-12T07:02:25.259Z,85.36
2018-05-12T07:03:25.197Z,83.73
2018-05-12T07:04:25.135Z,84.69
2018-05-12T07:05:25.073Z,84.55
2018-05-12T07:06:25.013Z,84.59
2018-05-12T07:07:24.950Z,84.92
2018-05-12T07:08:24.890Z,84.55
2018-05-12T07:09:24.826Z,85.02
2018-05-12T07:10:24.768Z,84.83
2018-05-12T07:11:24.705Z,85.31
2018-05-12T07:12:24.715Z,85.60
2018-05-12T07:13:24.582Z,85.50
2018-05-12T07:14:24.528Z,84.92
2018-05-12T07:15:24.458Z,84.92
2018-05-12T07:16:24.400Z,85.60
2018-05-12T07:17:24.336Z,85.02
2018-05-12T07:18:24.280Z,84.83
2018-05-12T07:19:24.267Z,84.92
2018-05-12T07:20:24.154Z,85.31
2018-05-12T07:21:24.092Z,85.50
2018-05-12T07:22:24.037Z,84.83
2018-05-12T07:23:23.968Z,85.21
2018-05-12T07:24:23.911Z,85.50
2018-05-12T07:25:23.852Z,84.74
2018-05-12T07:26:23.786Z,84.45
2018-05-12T07:27:23.723Z,84.55
2018-05-12T07:28:23.664Z,84.45
2018-05-12T07:29:23.603Z,83.78
2018-05-12T07:30:23.547Z,83.72
2018-05-12T07:31:23.479Z,84.20
2018-05-12T07:32:23.419Z,84.01
2018-05-12T07:33:23.358Z,83.82
2018-05-12T07:34:23.297Z,83.44
2018-05-12T07:35:23.239Z,83.15
2018-05-12T07:36:23.175Z,83.53
2018-05-12T07:37:23.113Z,82.96
2018-05-12T07:38:23.052Z,83.53
2018-05-12T07:39:22.991Z,83.05
2018-05-12T07:40:22.931Z,82.48
2018-05-12T07:41:22.871Z,82.52
2018-05-12T07:42:22.809Z,81.85
2018-05-12T07:43:22.749Z,81.37
2018-05-12T07:44:22.687Z,81.46
2018-05-12T07:45:22.626Z,81.08
2018-05-12T07:46:22.567Z,80.41
2018-05-12T07:47:22.505Z,80.41
2018-05-12T07:48:22.444Z,80.51
2018-05-12T07:49:22.384Z,79.78
2018-05-12T07:50:22.325Z,79.59
2018-05-12T07:51:22.261Z,78.82
2018-05-12T07:52:22.208Z,78.15
2018-05-12T07:53:22.140Z,79.14
2018-05-12T07:54:22.083Z,78.09
2018-05-12T07:55:22.023Z,77.51
2018-05-12T07:56:21.962Z,77.61
2018-05-12T07:57:21.899Z,77.71
2018-05-12T07:58:21.840Z,77.13
2018-05-12T07:59:21.775Z,76.79
2018-05-12T08:00:21.712Z,76.59
2018-05-12T08:01:21.659Z,77.08
2018-05-12T08:02:21.597Z,76.02
2018-05-12T08:03:21.538Z,76.31
2018-05-12T08:04:21.478Z,75.92
2018-05-12T08:05:21.418Z,76.02
2018-05-12T08:06:21.357Z,75.73
2018-05-12T08:07:21.297Z,74.19
2018-05-12T08:08:21.238Z,73.85
2018-05-12T08:09:21.177Z,74.33
2018-05-12T08:10:21.117Z,72.99
2018-05-12T08:11:21.055Z,72.41
2018-05-12T08:12:20.997Z,71.67
2018-05-12T08:13:20.936Z,71.00
2018-05-12T08:14:20.877Z,70.62
2018-05-12T08:15:20.815Z,70.52
2018-05-12T08:16:20.757Z,70.14
2018-05-12T08:17:20.696Z,70.33
2018-05-12T08:18:20.637Z,70.17
2018-05-12T08:19:20.582Z,69.98
2018-05-12T08:20:20.517Z,70.65
2018-05-12T08:21:20.460Z,70.90
2018-05-12T08:22:20.400Z,71.10
2018-05-12T08:23:20.339Z,71.42
2018-05-12T08:24:20.281Z,70.65
2018-05-12T08:25:20.221Z,70.46
2018-05-12T08:26:20.160Z,70.56
2018-05-12T08:27:20.100Z,70.27
2018-05-12T08:28:20.042Z,71.04
2018-05-12T08:29:19.983Z,70.65
2018-05-12T08:30:19.927Z,70.56
2018-05-12T08:31:19.865Z,70.37
2018-05-12T08:32:19.807Z,69.98
2018-05-12T08:33:19.747Z,69.98
2018-05-12T08:34:19.692Z,69.50
2018-05-12T08:35:19.628Z,69.31
2018-05-12T08:36:19.569Z,69.79
2018-05-12T08:37:19.509Z,70.56
2018-05-12T08:38:19.452Z,69.98
2018-05-12T08:39:19.394Z,69.92
2018-05-12T08:40:19.350Z,68.96
2018-05-12T08:41:19.276Z,68.38
2018-05-12T08:42:19.219Z,68.90
2018-05-12T08:43:19.160Z,68.80
2018-05-12T08:44:19.099Z,68.99
2018-05-12T08:45:19.043Z,68.41
2018-05-12T08:46:18.982Z,68.03
2018-05-12T08:47:18.927Z,65.91
2018-05-12T08:48:18.955Z,65.66
2018-05-12T08:49:18.807Z,66.04
2018-05-12T08:50:18.750Z,66.33
2018-05-12T08:51:18.690Z,65.85
2018-05-12T08:52:18.632Z,66.33
2018-05-12T08:53:18.576Z,65.94
2018-05-12T08:54:18.516Z,66.14
2018-05-12T08:55:18.538Z,66.42
2018-05-12T08:56:18.399Z,65.66
2018-05-12T08:57:18.339Z,66.42
2018-05-12T08:58:18.281Z,65.78
2018-05-12T08:59:18.222Z,64.53
2018-05-12T09:00:18.166Z,64.05
2018-05-12T09:01:18.109Z,63.76
2018-05-12T09:02:18.050Z,63.60
2018-05-12T09:03:17.989Z,62.25
2018-05-12T09:04:17.933Z,61.38
2018-05-12T09:05:17.877Z,60.35
2018-05-12T09:06:17.820Z,60.00
2018-05-12T09:07:17.872Z,59.52
2018-05-12T09:08:17.704Z,58.97
2018-05-12T09:09:17.643Z,58.00
2018-05-12T09:10:17.585Z,57.81
2018-05-12T09:11:17.527Z,57.35
2018-05-12T09:12:17.470Z,57.26
2018-05-12T09:13:17.413Z,57.90
2018-05-12T09:14:17.360Z,58.10
2018-05-12T09:15:17.296Z,59.03
2018-05-12T09:16:17.240Z,59.74
2018-05-12T09:17:17.183Z,59.06
2018-05-12T09:18:17.125Z,58.58
2018-05-12T09:19:17.143Z,58.19
2018-05-12T09:20:17.011Z,58.19
2018-05-12T09:21:16.952Z,59.25
2018-05-12T09:22:16.895Z,59.25
2018-05-12T09:23:16.836Z,59.03
2018-05-12T09:24:16.780Z,59.55
2018-05-12T09:25:16.724Z,58.87
2018-05-12T09:26:16.666Z,59.03
2018-05-12T09:27:16.610Z,59.35
2018-05-12T09:28:16.554Z,58.48
2018-05-12T09:29:16.495Z,58.77
2018-05-12T09:30:16.438Z,58.87
2018-05-12T09:31:16.380Z,58.51
2018-05-12T09:32:16.324Z,58.32
2018-05-12T09:33:16.268Z,57.67
2018-05-12T09:34:16.212Z,55.65
2018-05-12T09:35:16.153Z,55.45
2018-05-12T09:36:16.102Z,53.83
2018-05-12T09:37:16.060Z,53.31
2018-05-12T09:38:15.984Z,52.17
2018-05-12T09:39:15.931Z,50.45
2018-05-12T09:40:15.872Z,49.32
2018-05-12T09:41:15.817Z,48.27
2018-05-12T09:42:15.774Z,49.58
2018-05-12T09:43:15.709Z,48.66
2018-05-12T09:44:15.652Z,46.38
2018-05-12T09:45:15.593Z,44.65
2018-05-12T09:46:15.539Z,43.63
2018-05-12T09:47:15.481Z,43.24
2018-05-12T09:48:15.432Z,42.39
2018-05-12T09:49:15.377Z,43.15
2018-05-12T09:50:15.319Z,43.15
2018-05-12T09:51:15.268Z,43.24
2018-05-12T09:52:15.216Z,43.41
2018-05-12T09:53:15.163Z,42.85
2018-05-12T09:54:15.108Z,42.46
2018-05-12T09:55:15.057Z,40.73
2018-05-12T09:56:15.002Z,40.64
2018-05-12T09:57:14.950Z,39.61
2018-05-12T09:58:14.899Z,38.73
2018-05-12T09:59:14.845Z,38.62
2018-05-12T10:00:14.793Z,37.66
2018-05-12T10:01:14.745Z,37.97
2018-05-12T10:02:14.691Z,37.85
2018-05-12T10:03:14.639Z,38.62
2018-05-12T10:04:14.583Z,38.91
2018-05-12T10:05:14.535Z,39.20
2018-05-12T10:06:14.486Z,39.03
2018-05-12T10:07:14.434Z,37.66
2018-05-12T10:08:14.384Z,36.90
2018-05-12T10:09:14.334Z,36.12
2018-05-12T10:10:14.284Z,37.19
2018-05-12T10:11:14.230Z,35.94
2018-05-12T10:12:14.180Z,35.28
2018-05-12T10:13:14.132Z,34.69
2018-05-12T10:14:14.082Z,35.08
2018-05-12T10:15:14.032Z,34.89
2018-05-12T10:16:13.982Z,35.18
2018-05-12T10:17:13.934Z,34.12
2018-05-12T10:18:13.958Z,34.50
2018-05-12T10:19:13.832Z,33.82
2018-05-12T10:20:13.782Z,34.86
2018-05-12T10:21:13.733Z,34.66
2018-05-12T10:22:13.682Z,36.18
2018-05-12T10:23:13.634Z,36.65
2018-05-12T10:24:13.585Z,36.57
2018-05-12T10:25:13.535Z,35.50
2018-05-12T10:26:13.538Z,34.95
2018-05-12T10:27:13.437Z,35.52
2018-05-12T10:28:13.392Z,35.33
2018-05-12T10:29:13.342Z,35.39
2018-05-12T10:30:13.291Z,35.50
2018-05-12T10:31:13.239Z,35.78
2018-05-12T10:32:13.193Z,35.78
2018-05-12T10:33:13.141Z,36.77
2018-05-12T10:34:13.094Z,36.67
2018-05-12T10:35:13.045Z,36.08
2018-05-12T10:36:12.992Z,35.99
2018-05-12T10:37:12.944Z,36.08
2018-05-12T10:38:12.906Z,34.82
2018-05-12T10:39:12.840Z,34.82
2018-05-12T10:40:12.795Z,34.72
2018-05-12T10:41:12.744Z,34.05
2018-05-12T10:42:12.694Z,35.10
2018-05-12T10:43:12.645Z,35.41
2018-05-12T10:44:12.594Z,35.49
2018-05-12T10:45:12.546Z,34.92
2018-05-12T10:46:12.498Z,33.75
2018-05-12T10:47:12.445Z,32.50
2018-05-12T10:48:12.398Z,32.11
2018-05-12T10:49:12.348Z,33.36
2018-05-12T10:50:12.298Z,32.79
2018-05-12T10:51:12.247Z,32.78
2018-05-12T10:52:12.197Z,34.12
2018-05-12T10:53:12.148Z,35.08
2018-05-12T10:54:12.104Z,35.39
2018-05-12T10:55:12.054Z,35.47
2018-05-12T10:56:11.999Z,36.60
2018-05-12T10:57:11.950Z,37.35
2018-05-12T10:58:11.902Z,38.79
2018-05-12T10:59:11.848Z,38.42
2018-05-12T11:00:11.798Z,37.84
2018-05-12T11:01:11.750Z,38.70
2018-05-12T11:02:11.696Z,39.94
2018-05-12T11:03:11.647Z,40.89
2018-05-12T11:04:11.594Z,41.66
2018-05-12T11:05:11.545Z,41.95
2018-05-12T11:06:11.493Z,41.58
2018-05-12T11:07:11.440Z,40.64
2018-05-12T11:08:11.392Z,39.78
2018-05-12T11:09:11.335Z,40.08
2018-05-12T11:10:11.287Z,39.29
2018-05-12T11:11:11.231Z,40.36
2018-05-12T11:12:11.181Z,40.61
2018-05-12T11:13:11.128Z,40.99
2018-05-12T11:14:11.075Z,41.45
2018-05-12T11:15:11.024Z,42.51
2018-05-12T11:16:10.998Z,42.32
2018-05-12T11:17:10.916Z,42.90
2018-05-12T11:18:10.867Z,43.58
2018-05-12T11:19:10.811Z,42.78
2018-05-12T11:20:10.761Z,43.37
2018-05-12T11:21:10.703Z,43.55
2018-05-12T11:22:10.654Z,43.44
2018-05-12T11:23:10.597Z,43.92
2018-05-12T11:24:10.545Z,43.73
2018-05-12T11:25:10.491Z,44.12
2018-05-12T11:26:10.439Z,43.44
2018-05-12T11:27:10.380Z,43.82
2018-05-12T11:28:10.327Z,44.60
2018-05-12T11:29:10.273Z,44.60
2018-05-12T11:30:10.220Z,44.79
2018-05-12T11:31:10.166Z,44.02
2018-05-12T11:32:10.163Z,44.13
2018-05-12T11:33:10.059Z,43.37
2018-05-12T11:34:10.003Z,43.55
2018-05-12T11:35:09.956Z,44.23
2018-05-12T11:36:09.899Z,44.13
2018-05-12T11:37:09.839Z,43.46
2018-05-12T11:38:09.781Z,42.76
2018-05-12T11:39:09.728Z,42.28
2018-05-12T11:40:09.671Z,42.57
2018-05-12T11:41:09.618Z,42.57
2018-05-12T11:42:09.563Z,43.05
2018-05-12T11:43:09.507Z,43.15
2018-05-12T11:44:09.453Z,42.93
2018-05-12T11:45:09.396Z,42.93
2018-05-12T11:46:09.345Z,43.23
2018-05-12T11:47:09.287Z,43.51
2018-05-12T11:48:09.240Z,42.83
2018-05-12T11:49:09.172Z,42.74
2018-05-12T11:50:09.173Z,42.83
2018-05-12T11:51:09.066Z,43.41
2018-05-12T11:52:09.011Z,43.71
2018-05-12T11:53:08.954Z,43.90
2018-05-12T11:54:08.983Z,43.51
2018-05-12T11:55:08.844Z,44.31
2018-05-12T11:56:08.789Z,42.83
2018-05-12T11:57:08.733Z,42.25
2018-05-12T11:58:08.677Z,42.35
2018-05-12T11:59:08.622Z,42.93
2018-05-12T12:00:08.565Z,42.07
2018-05-12T12:01:08.510Z,40.71
2018-05-12T12:02:08.455Z,40.90
2018-05-12T12:03:08.399Z,41.58
2018-05-12T12:04:08.343Z,40.81
2018-05-12T12:05:08.288Z,40.42
2018-05-12T12:06:08.236Z,40.32
2018-05-12T12:07:08.174Z,41.48
2018-05-12T12:08:08.118Z,41.48
2018-05-12T12:09:08.063Z,42.16
2018-05-12T12:10:08.008Z,42.35
2018-05-12T12:11:07.952Z,42.45
2018-05-12T12:12:07.897Z,41.70
2018-05-12T12:13:07.838Z,41.79
2018-05-12T12:14:07.784Z,41.99
2018-05-12T12:15:07.728Z,40.83
2018-05-12T12:16:07.675Z,40.56
2018-05-12T12:17:07.618Z,40.75
2018-05-12T12:18:07.559Z,40.84
2018-05-12T12:19:07.506Z,40.36
2018-05-12T12:20:07.449Z,41.52
2018-05-12T12:21:07.393Z,40.96
2018-05-12T12:22:07.339Z,41.74
2018-05-12T12:23:07.281Z,41.55
2018-05-12T12:24:07.225Z,41.74
2018-05-12T12:25:07.168Z,41.52
2018-05-12T12:26:07.114Z,41.62
2018-05-12T12:27:07.056Z,41.52
2018-05-12T12:28:07.001Z,41.72
2018-05-12T12:29:06.947Z,41.82
2018-05-12T12:30:06.891Z,41.24
2018-05-12T12:31:06.833Z,42.37
2018-05-12T12:32:06.777Z,41.91
2018-05-12T12:33:06.722Z,41.89
2018-05-12T12:34:06.667Z,41.50
2018-05-12T12:35:06.623Z,42.47
2018-05-12T12:36:06.554Z,42.37
2018-05-12T12:37:06.500Z,41.82
2018-05-12T12:38:06.445Z,40.94
2018-05-12T12:39:06.387Z,41.74
2018-05-12T12:40:06.331Z,41.16
2018-05-12T12:41:06.275Z,40.28
2018-05-12T12:42:06.221Z,41.64
2018-05-12T12:43:06.164Z,41.45
2018-05-12T12:44:06.109Z,42.13
2018-05-12T12:45:06.069Z,41.64
2018-05-12T12:46:06.004Z,42.41
2018-05-12T12:47:05.945Z,42.68
2018-05-12T12:48:05.896Z,42.30
2018-05-12T12:49:05.830Z,41.82
2018-05-12T12:50:05.773Z,42.59
2018-05-12T12:51:05.719Z,42.78
2018-05-12T12:52:05.665Z,42.49